sensor_id;sensor_type;location;lat;lon;timestamp;P1;durP1;ratioP1;P2;durP2;ratioP2
50012;SDS011;35901;48.694;9.476;2023-04-10T00:02:18;12.57;;;10.70;;
50012;SDS011;35901;48.694;9.476;2023-04-10T00:04:45;12.77;;;11.00;;
50012;SDS011;35901;48.694;9.476;2023-04-10T00:07:10;13.00;;;11.23;;
50012;SDS011;35901;48.694;9.476;2023-04-10T00:09:37;15.83;;;11.47;;
50012;SDS011;35901;48.694;9.476;2023-04-10T00:12:03;12.07;;;10.20;;
50012;SDS011;35901;48.694;9.476;2023-04-10T00:14:28;13.67;;;11.10;;
50012;SDS011;35901;48.694;9.476;2023-04-10T00:16:54;16.70;;;12.50;;
50012;SDS011;35901;48.694;9.476;2023-04-10T00:19:20;15.97;;;12.03;;
50012;SDS011;35901;48.694;9.476;2023-04-10T00:21:46;15.00;;;12.50;;
50012;SDS011;35901;48.694;9.476;2023-04-10T00:24:12;13.50;;;10.90;;
50012;SDS011;35901;48.694;9.476;2023-04-10T00:26:37;15.23;;;12.40;;
50012;SDS011;35901;48.694;9.476;2023-04-10T00:29:04;16.17;;;13.13;;
50012;SDS011;35901;48.694;9.476;2023-04-10T00:31:30;14.00;;;11.67;;
50012;SDS011;35901;48.694;9.476;2023-04-10T00:33:56;13.63;;;11.33;;
50012;SDS011;35901;48.694;9.476;2023-04-10T00:36:22;18.27;;;13.80;;
50012;SDS011;35901;48.694;9.476;2023-04-10T00:38:48;14.70;;;12.07;;
50012;SDS011;35901;48.694;9.476;2023-04-10T00:41:16;15.67;;;11.97;;
50012;SDS011;35901;48.694;9.476;2023-04-10T00:43:42;15.30;;;12.43;;
50012;SDS011;35901;48.694;9.476;2023-04-10T00:46:09;15.53;;;12.53;;
50012;SDS011;35901;48.694;9.476;2023-04-10T00:48:35;15.43;;;12.37;;
50012;SDS011;35901;48.694;9.476;2023-04-10T00:51:01;18.23;;;13.23;;
50012;SDS011;35901;48.694;9.476;2023-04-10T00:53:28;15.97;;;12.17;;
50012;SDS011;35901;48.694;9.476;2023-04-10T00:55:54;13.07;;;10.77;;
50012;SDS011;35901;48.694;9.476;2023-04-10T00:58:20;15.63;;;12.27;;
50012;SDS011;35901;48.694;9.476;2023-04-10T01:00:46;15.60;;;11.87;;
50012;SDS011;35901;48.694;9.476;2023-04-10T01:03:13;14.20;;;11.33;;
50012;SDS011;35901;48.694;9.476;2023-04-10T01:05:42;13.63;;;11.53;;
50012;SDS011;35901;48.694;9.476;2023-04-10T01:11:04;15.03;;;11.20;;
50012;SDS011;35901;48.694;9.476;2023-04-10T01:13:35;12.47;;;9.93;;
50012;SDS011;35901;48.694;9.476;2023-04-10T01:16:18;12.73;;;10.40;;
50012;SDS011;35901;48.694;9.476;2023-04-10T01:18:50;16.40;;;12.73;;
50012;SDS011;35901;48.694;9.476;2023-04-10T01:21:21;17.07;;;12.47;;
50012;SDS011;35901;48.694;9.476;2023-04-10T01:26:17;16.70;;;12.67;;
50012;SDS011;35901;48.694;9.476;2023-04-10T01:29:15;14.70;;;11.97;;
50012;SDS011;35901;48.694;9.476;2023-04-10T01:31:48;16.50;;;12.63;;
50012;SDS011;35901;48.694;9.476;2023-04-10T01:34:24;18.93;;;14.33;;
50012;SDS011;35901;48.694;9.476;2023-04-10T01:37:30;17.40;;;12.73;;
50012;SDS011;35901;48.694;9.476;2023-04-10T01:40:00;14.77;;;12.07;;
50012;SDS011;35901;48.694;9.476;2023-04-10T01:42:29;18.93;;;13.63;;
50012;SDS011;35901;48.694;9.476;2023-04-10T01:44:58;18.97;;;14.27;;
50012;SDS011;35901;48.694;9.476;2023-04-10T01:47:26;18.53;;;14.57;;
50012;SDS011;35901;48.694;9.476;2023-04-10T01:49:53;19.57;;;14.03;;
50012;SDS011;35901;48.694;9.476;2023-04-10T01:52:21;17.90;;;13.07;;
50012;SDS011;35901;48.694;9.476;2023-04-10T01:54:57;17.70;;;13.53;;
50012;SDS011;35901;48.694;9.476;2023-04-10T01:57:34;15.73;;;11.97;;
50012;SDS011;35901;48.694;9.476;2023-04-10T02:00:01;18.30;;;13.93;;
50012;SDS011;35901;48.694;9.476;2023-04-10T02:02:31;17.77;;;13.43;;
50012;SDS011;35901;48.694;9.476;2023-04-10T02:04:57;18.53;;;13.80;;
50012;SDS011;35901;48.694;9.476;2023-04-10T02:07:26;18.87;;;13.67;;
50012;SDS011;35901;48.694;9.476;2023-04-10T02:10:12;16.80;;;12.67;;
50012;SDS011;35901;48.694;9.476;2023-04-10T02:12:47;16.47;;;12.27;;
50012;SDS011;35901;48.694;9.476;2023-04-10T02:15:21;16.57;;;12.47;;
50012;SDS011;35901;48.694;9.476;2023-04-10T02:17:48;20.03;;;14.47;;
50012;SDS011;35901;48.694;9.476;2023-04-10T02:20:16;24.10;;;17.37;;
50012;SDS011;35901;48.694;9.476;2023-04-10T02:22:45;19.80;;;14.43;;
50012;SDS011;35901;48.694;9.476;2023-04-10T02:25:11;19.83;;;14.30;;
50012;SDS011;35901;48.694;9.476;2023-04-10T02:27:37;21.50;;;15.57;;
50012;SDS011;35901;48.694;9.476;2023-04-10T02:30:04;20.37;;;14.97;;
50012;SDS011;35901;48.694;9.476;2023-04-10T02:32:32;19.83;;;14.40;;
50012;SDS011;35901;48.694;9.476;2023-04-10T02:34:58;17.63;;;13.30;;
50012;SDS011;35901;48.694;9.476;2023-04-10T02:37:25;15.33;;;12.27;;
50012;SDS011;35901;48.694;9.476;2023-04-10T02:39:51;15.83;;;11.57;;
50012;SDS011;35901;48.694;9.476;2023-04-10T02:42:21;14.33;;;11.20;;
50012;SDS011;35901;48.694;9.476;2023-04-10T02:44:48;16.93;;;12.30;;
50012;SDS011;35901;48.694;9.476;2023-04-10T02:47:14;15.73;;;11.73;;
50012;SDS011;35901;48.694;9.476;2023-04-10T02:49:44;16.80;;;12.87;;
50012;SDS011;35901;48.694;9.476;2023-04-10T02:52:13;14.77;;;11.67;;
50012;SDS011;35901;48.694;9.476;2023-04-10T02:54:38;16.60;;;11.90;;
50012;SDS011;35901;48.694;9.476;2023-04-10T02:57:04;15.90;;;11.50;;
50012;SDS011;35901;48.694;9.476;2023-04-10T02:59:30;14.87;;;11.53;;
50012;SDS011;35901;48.694;9.476;2023-04-10T03:01:58;18.93;;;13.47;;
50012;SDS011;35901;48.694;9.476;2023-04-10T03:04:23;15.77;;;11.83;;
50012;SDS011;35901;48.694;9.476;2023-04-10T03:06:49;17.73;;;13.40;;
50012;SDS011;35901;48.694;9.476;2023-04-10T03:09:15;17.13;;;12.20;;
50012;SDS011;35901;48.694;9.476;2023-04-10T03:11:41;18.60;;;12.87;;
50012;SDS011;35901;48.694;9.476;2023-04-10T03:14:06;16.93;;;12.17;;
50012;SDS011;35901;48.694;9.476;2023-04-10T03:16:33;17.43;;;12.93;;
50012;SDS011;35901;48.694;9.476;2023-04-10T03:19:02;17.47;;;12.33;;
50012;SDS011;35901;48.694;9.476;2023-04-10T03:21:28;14.87;;;11.50;;
50012;SDS011;35901;48.694;9.476;2023-04-10T03:23:54;13.93;;;10.43;;
50012;SDS011;35901;48.694;9.476;2023-04-10T03:26:20;14.30;;;10.67;;
50012;SDS011;35901;48.694;9.476;2023-04-10T03:28:49;15.33;;;10.80;;
50012;SDS011;35901;48.694;9.476;2023-04-10T03:31:15;14.43;;;10.97;;
50012;SDS011;35901;48.694;9.476;2023-04-10T03:33:42;17.73;;;12.53;;
50012;SDS011;35901;48.694;9.476;2023-04-10T03:36:08;16.97;;;11.70;;
50012;SDS011;35901;48.694;9.476;2023-04-10T03:38:35;15.60;;;11.43;;
50012;SDS011;35901;48.694;9.476;2023-04-10T03:41:01;16.17;;;11.77;;
50012;SDS011;35901;48.694;9.476;2023-04-10T03:43:29;21.23;;;14.80;;
50012;SDS011;35901;48.694;9.476;2023-04-10T03:45:55;23.97;;;15.60;;
50012;SDS011;35901;48.694;9.476;2023-04-10T03:48:22;28.53;;;17.03;;
50012;SDS011;35901;48.694;9.476;2023-04-10T03:50:48;20.70;;;14.77;;
50012;SDS011;35901;48.694;9.476;2023-04-10T03:53:14;22.63;;;14.83;;
50012;SDS011;35901;48.694;9.476;2023-04-10T03:55:41;28.20;;;17.43;;
50012;SDS011;35901;48.694;9.476;2023-04-10T03:58:07;24.37;;;16.53;;
50012;SDS011;35901;48.694;9.476;2023-04-10T04:00:34;22.57;;;15.47;;
50012;SDS011;35901;48.694;9.476;2023-04-10T04:03:10;22.67;;;16.00;;
50012;SDS011;35901;48.694;9.476;2023-04-10T04:05:50;20.73;;;14.97;;
50012;SDS011;35901;48.694;9.476;2023-04-10T04:08:34;22.20;;;14.70;;
50012;SDS011;35901;48.694;9.476;2023-04-10T04:11:11;20.90;;;14.70;;
50012;SDS011;35901;48.694;9.476;2023-04-10T04:13:51;18.53;;;13.03;;
50012;SDS011;35901;48.694;9.476;2023-04-10T04:16:45;18.70;;;13.03;;
50012;SDS011;35901;48.694;9.476;2023-04-10T04:19:30;14.90;;;11.70;;
50012;SDS011;35901;48.694;9.476;2023-04-10T04:22:14;17.53;;;11.43;;
50012;SDS011;35901;48.694;9.476;2023-04-10T04:25:01;14.80;;;11.13;;
50012;SDS011;35901;48.694;9.476;2023-04-10T04:27:47;16.63;;;12.30;;
50012;SDS011;35901;48.694;9.476;2023-04-10T04:30:31;16.47;;;11.70;;
50012;SDS011;35901;48.694;9.476;2023-04-10T04:33:29;15.17;;;10.90;;
50012;SDS011;35901;48.694;9.476;2023-04-10T04:36:01;15.60;;;11.50;;
50012;SDS011;35901;48.694;9.476;2023-04-10T04:38:47;15.13;;;10.90;;
50012;SDS011;35901;48.694;9.476;2023-04-10T04:41:30;16.13;;;11.60;;
50012;SDS011;35901;48.694;9.476;2023-04-10T04:44:13;16.53;;;12.17;;
50012;SDS011;35901;48.694;9.476;2023-04-10T04:46:58;17.67;;;12.77;;
50012;SDS011;35901;48.694;9.476;2023-04-10T04:49:42;17.63;;;12.40;;
50012;SDS011;35901;48.694;9.476;2023-04-10T04:52:10;17.97;;;12.93;;
50012;SDS011;35901;48.694;9.476;2023-04-10T04:54:40;18.97;;;13.40;;
50012;SDS011;35901;48.694;9.476;2023-04-10T04:57:13;18.33;;;12.40;;
50012;SDS011;35901;48.694;9.476;2023-04-10T05:00:01;16.57;;;11.97;;
50012;SDS011;35901;48.694;9.476;2023-04-10T05:02:46;17.80;;;12.50;;
50012;SDS011;35901;48.694;9.476;2023-04-10T05:05:34;16.87;;;12.67;;
50012;SDS011;35901;48.694;9.476;2023-04-10T05:08:21;15.07;;;11.43;;
50012;SDS011;35901;48.694;9.476;2023-04-10T05:10:55;14.97;;;11.70;;
50012;SDS011;35901;48.694;9.476;2023-04-10T05:13:39;14.00;;;10.97;;
50012;SDS011;35901;48.694;9.476;2023-04-10T05:16:19;13.17;;;10.40;;
50012;SDS011;35901;48.694;9.476;2023-04-10T05:19:04;11.30;;;10.10;;
50012;SDS011;35901;48.694;9.476;2023-04-10T05:21:50;11.53;;;9.43;;
50012;SDS011;35901;48.694;9.476;2023-04-10T05:24:43;11.23;;;9.93;;
50012;SDS011;35901;48.694;9.476;2023-04-10T05:27:31;9.90;;;8.90;;
50012;SDS011;35901;48.694;9.476;2023-04-10T05:30:15;9.57;;;8.57;;
50012;SDS011;35901;48.694;9.476;2023-04-10T05:33:01;10.47;;;8.47;;
50012;SDS011;35901;48.694;9.476;2023-04-10T05:35:56;9.67;;;8.47;;
50012;SDS011;35901;48.694;9.476;2023-04-10T05:38:33;10.37;;;8.87;;
50012;SDS011;35901;48.694;9.476;2023-04-10T05:41:14;9.70;;;8.70;;
50012;SDS011;35901;48.694;9.476;2023-04-10T05:43:59;10.03;;;8.87;;
50012;SDS011;35901;48.694;9.476;2023-04-10T05:46:43;9.77;;;8.77;;
50012;SDS011;35901;48.694;9.476;2023-04-10T05:49:41;9.63;;;8.30;;
50012;SDS011;35901;48.694;9.476;2023-04-10T05:52:33;9.00;;;8.10;;
50012;SDS011;35901;48.694;9.476;2023-04-10T05:55:21;9.87;;;8.23;;
50012;SDS011;35901;48.694;9.476;2023-04-10T05:57:54;7.73;;;6.93;;
50012;SDS011;35901;48.694;9.476;2023-04-10T06:00:33;9.13;;;8.13;;
50012;SDS011;35901;48.694;9.476;2023-04-10T06:03:21;8.90;;;7.17;;
50012;SDS011;35901;48.694;9.476;2023-04-10T06:05:53;8.77;;;7.87;;
50012;SDS011;35901;48.694;9.476;2023-04-10T06:08:18;8.60;;;7.43;;
50012;SDS011;35901;48.694;9.476;2023-04-10T06:10:47;7.83;;;7.03;;
50012;SDS011;35901;48.694;9.476;2023-04-10T06:13:14;9.20;;;8.30;;
50012;SDS011;35901;48.694;9.476;2023-04-10T06:15:39;8.33;;;7.53;;
50012;SDS011;35901;48.694;9.476;2023-04-10T06:18:05;8.20;;;7.40;;
50012;SDS011;35901;48.694;9.476;2023-04-10T06:20:31;9.03;;;8.13;;
50012;SDS011;35901;48.694;9.476;2023-04-10T06:22:57;7.30;;;6.60;;
50012;SDS011;35901;48.694;9.476;2023-04-10T06:25:23;6.77;;;6.17;;
50012;SDS011;35901;48.694;9.476;2023-04-10T06:27:49;7.23;;;6.53;;
50012;SDS011;35901;48.694;9.476;2023-04-10T06:30:15;6.43;;;5.83;;
50012;SDS011;35901;48.694;9.476;2023-04-10T06:32:41;6.70;;;6.03;;
50012;SDS011;35901;48.694;9.476;2023-04-10T06:35:07;6.97;;;6.27;;
50012;SDS011;35901;48.694;9.476;2023-04-10T06:37:33;6.97;;;6.37;;
50012;SDS011;35901;48.694;9.476;2023-04-10T06:40:05;6.53;;;5.93;;
50012;SDS011;35901;48.694;9.476;2023-04-10T06:42:32;6.67;;;6.07;;
50012;SDS011;35901;48.694;9.476;2023-04-10T06:45:05;6.40;;;5.80;;
50012;SDS011;35901;48.694;9.476;2023-04-10T06:47:32;6.90;;;6.30;;
50012;SDS011;35901;48.694;9.476;2023-04-10T06:49:57;6.43;;;5.83;;
50012;SDS011;35901;48.694;9.476;2023-04-10T06:52:23;6.00;;;5.33;;
50012;SDS011;35901;48.694;9.476;2023-04-10T06:54:49;6.07;;;5.53;;
50012;SDS011;35901;48.694;9.476;2023-04-10T06:57:15;6.30;;;5.70;;
50012;SDS011;35901;48.694;9.476;2023-04-10T06:59:41;6.10;;;5.50;;
50012;SDS011;35901;48.694;9.476;2023-04-10T07:02:07;6.30;;;5.80;;
50012;SDS011;35901;48.694;9.476;2023-04-10T07:04:32;6.27;;;5.67;;
50012;SDS011;35901;48.694;9.476;2023-04-10T07:06:58;6.40;;;5.80;;
50012;SDS011;35901;48.694;9.476;2023-04-10T07:09:24;5.83;;;5.33;;
50012;SDS011;35901;48.694;9.476;2023-04-10T07:11:50;6.20;;;5.70;;
50012;SDS011;35901;48.694;9.476;2023-04-10T07:14:16;6.27;;;5.70;;
50012;SDS011;35901;48.694;9.476;2023-04-10T07:16:42;6.20;;;5.60;;
50012;SDS011;35901;48.694;9.476;2023-04-10T07:19:08;6.33;;;5.23;;
50012;SDS011;35901;48.694;9.476;2023-04-10T07:21:33;5.87;;;5.37;;
50012;SDS011;35901;48.694;9.476;2023-04-10T07:23:59;6.20;;;5.70;;
50012;SDS011;35901;48.694;9.476;2023-04-10T07:26:25;6.00;;;5.50;;
50012;SDS011;35901;48.694;9.476;2023-04-10T07:28:51;6.03;;;5.53;;
50012;SDS011;35901;48.694;9.476;2023-04-10T07:31:16;5.73;;;5.23;;
50012;SDS011;35901;48.694;9.476;2023-04-10T07:33:43;5.93;;;5.43;;
50012;SDS011;35901;48.694;9.476;2023-04-10T07:36:10;6.47;;;5.87;;
50012;SDS011;35901;48.694;9.476;2023-04-10T07:38:36;6.07;;;5.57;;
50012;SDS011;35901;48.694;9.476;2023-04-10T07:41:02;5.63;;;5.10;;
50012;SDS011;35901;48.694;9.476;2023-04-10T07:43:29;5.23;;;4.73;;
50012;SDS011;35901;48.694;9.476;2023-04-10T07:45:55;5.37;;;4.93;;
50012;SDS011;35901;48.694;9.476;2023-04-10T07:48:21;5.37;;;4.87;;
50012;SDS011;35901;48.694;9.476;2023-04-10T07:50:47;5.10;;;4.70;;
50012;SDS011;35901;48.694;9.476;2023-04-10T07:53:13;5.70;;;5.10;;
50012;SDS011;35901;48.694;9.476;2023-04-10T07:55:43;5.10;;;4.70;;
50012;SDS011;35901;48.694;9.476;2023-04-10T07:58:12;5.27;;;4.80;;
50012;SDS011;35901;48.694;9.476;2023-04-10T08:00:38;5.40;;;4.43;;
50012;SDS011;35901;48.694;9.476;2023-04-10T08:03:04;4.40;;;4.00;;
50012;SDS011;35901;48.694;9.476;2023-04-10T08:05:30;4.30;;;4.00;;
50012;SDS011;35901;48.694;9.476;2023-04-10T08:07:57;5.40;;;4.53;;
50012;SDS011;35901;48.694;9.476;2023-04-10T08:10:23;5.43;;;4.93;;
50012;SDS011;35901;48.694;9.476;2023-04-10T08:12:49;4.60;;;4.20;;
50012;SDS011;35901;48.694;9.476;2023-04-10T08:15:16;5.17;;;4.67;;
50012;SDS011;35901;48.694;9.476;2023-04-10T08:17:43;4.47;;;4.07;;
50012;SDS011;35901;48.694;9.476;2023-04-10T08:20:09;4.87;;;4.33;;
50012;SDS011;35901;48.694;9.476;2023-04-10T08:22:35;4.90;;;4.50;;
50012;SDS011;35901;48.694;9.476;2023-04-10T08:25:02;4.80;;;4.40;;
50012;SDS011;35901;48.694;9.476;2023-04-10T08:27:28;5.07;;;4.67;;
50012;SDS011;35901;48.694;9.476;2023-04-10T08:29:54;5.10;;;4.60;;
50012;SDS011;35901;48.694;9.476;2023-04-10T08:32:20;5.47;;;4.97;;
50012;SDS011;35901;48.694;9.476;2023-04-10T08:34:46;4.40;;;4.00;;
50012;SDS011;35901;48.694;9.476;2023-04-10T08:37:13;4.60;;;4.20;;
50012;SDS011;35901;48.694;9.476;2023-04-10T08:39:39;4.73;;;4.33;;
50012;SDS011;35901;48.694;9.476;2023-04-10T08:42:06;4.00;;;3.70;;
50012;SDS011;35901;48.694;9.476;2023-04-10T08:44:32;3.87;;;3.57;;
50012;SDS011;35901;48.694;9.476;2023-04-10T08:47:01;3.30;;;3.00;;
50012;SDS011;35901;48.694;9.476;2023-04-10T08:52:28;4.27;;;3.97;;
50012;SDS011;35901;48.694;9.476;2023-04-10T08:54:58;4.20;;;3.90;;
50012;SDS011;35901;48.694;9.476;2023-04-10T08:57:26;4.17;;;3.87;;
50012;SDS011;35901;48.694;9.476;2023-04-10T08:59:53;4.20;;;3.87;;
50012;SDS011;35901;48.694;9.476;2023-04-10T09:02:20;3.27;;;3.07;;
50012;SDS011;35901;48.694;9.476;2023-04-10T09:04:46;4.70;;;4.30;;
50012;SDS011;35901;48.694;9.476;2023-04-10T09:07:14;4.77;;;4.33;;
50012;SDS011;35901;48.694;9.476;2023-04-10T09:09:40;3.80;;;3.50;;
50012;SDS011;35901;48.694;9.476;2023-04-10T09:12:06;4.17;;;3.87;;
50012;SDS011;35901;48.694;9.476;2023-04-10T09:14:33;3.23;;;2.93;;
50012;SDS011;35901;48.694;9.476;2023-04-10T09:17:10;3.67;;;3.37;;
50012;SDS011;35901;48.694;9.476;2023-04-10T09:19:35;3.90;;;3.60;;
50012;SDS011;35901;48.694;9.476;2023-04-10T09:22:01;4.17;;;3.87;;
50012;SDS011;35901;48.694;9.476;2023-04-10T09:24:27;4.47;;;4.07;;
50012;SDS011;35901;48.694;9.476;2023-04-10T09:26:53;3.90;;;3.60;;
50012;SDS011;35901;48.694;9.476;2023-04-10T09:29:19;4.00;;;3.70;;
50012;SDS011;35901;48.694;9.476;2023-04-10T09:31:45;3.70;;;3.40;;
50012;SDS011;35901;48.694;9.476;2023-04-10T09:36:41;3.73;;;3.43;;
50012;SDS011;35901;48.694;9.476;2023-04-10T09:39:09;3.80;;;3.50;;
50012;SDS011;35901;48.694;9.476;2023-04-10T09:44:26;2.77;;;2.57;;
50012;SDS011;35901;48.694;9.476;2023-04-10T09:49:44;2.97;;;2.77;;
50012;SDS011;35901;48.694;9.476;2023-04-10T09:55:01;2.77;;;2.57;;
50012;SDS011;35901;48.694;9.476;2023-04-10T09:57:33;2.77;;;2.57;;
50012;SDS011;35901;48.694;9.476;2023-04-10T10:00:01;2.60;;;2.40;;
50012;SDS011;35901;48.694;9.476;2023-04-10T10:02:33;2.97;;;2.77;;
50012;SDS011;35901;48.694;9.476;2023-04-10T10:05:03;2.50;;;2.40;;
50012;SDS011;35901;48.694;9.476;2023-04-10T10:07:30;2.70;;;2.50;;
50012;SDS011;35901;48.694;9.476;2023-04-10T10:09:57;2.90;;;2.70;;
50012;SDS011;35901;48.694;9.476;2023-04-10T10:13:07;2.50;;;2.30;;
50012;SDS011;35901;48.694;9.476;2023-04-10T10:15:42;2.80;;;2.60;;
50012;SDS011;35901;48.694;9.476;2023-04-10T10:18:20;2.70;;;2.50;;
50012;SDS011;35901;48.694;9.476;2023-04-10T10:21:12;2.73;;;2.50;;
50012;SDS011;35901;48.694;9.476;2023-04-10T10:23:40;2.37;;;2.27;;
50012;SDS011;35901;48.694;9.476;2023-04-10T10:26:08;2.80;;;2.60;;
50012;SDS011;35901;48.694;9.476;2023-04-10T10:28:35;2.53;;;2.33;;
50012;SDS011;35901;48.694;9.476;2023-04-10T10:31:02;2.70;;;2.50;;
50012;SDS011;35901;48.694;9.476;2023-04-10T10:33:28;2.43;;;2.20;;
50012;SDS011;35901;48.694;9.476;2023-04-10T10:35:57;2.20;;;2.10;;
50012;SDS011;35901;48.694;9.476;2023-04-10T10:38:25;2.73;;;2.53;;
50012;SDS011;35901;48.694;9.476;2023-04-10T10:46:03;2.70;;;2.50;;
50012;SDS011;35901;48.694;9.476;2023-04-10T10:48:37;2.50;;;2.40;;
50012;SDS011;35901;48.694;9.476;2023-04-10T10:51:04;2.10;;;2.00;;
50012;SDS011;35901;48.694;9.476;2023-04-10T10:53:36;2.43;;;2.33;;
50012;SDS011;35901;48.694;9.476;2023-04-10T10:58:47;2.50;;;2.30;;
50012;SDS011;35901;48.694;9.476;2023-04-10T11:01:14;2.00;;;1.90;;
50012;SDS011;35901;48.694;9.476;2023-04-10T11:03:40;2.43;;;2.20;;
50012;SDS011;35901;48.694;9.476;2023-04-10T11:06:09;2.30;;;2.20;;
50012;SDS011;35901;48.694;9.476;2023-04-10T11:08:43;2.27;;;2.17;;
50012;SDS011;35901;48.694;9.476;2023-04-10T11:11:12;2.23;;;2.13;;
50012;SDS011;35901;48.694;9.476;2023-04-10T11:19:01;2.20;;;2.10;;
50012;SDS011;35901;48.694;9.476;2023-04-10T11:21:28;2.27;;;2.17;;
50012;SDS011;35901;48.694;9.476;2023-04-10T11:29:02;2.33;;;2.23;;
50012;SDS011;35901;48.694;9.476;2023-04-10T11:31:30;2.00;;;1.90;;
50012;SDS011;35901;48.694;9.476;2023-04-10T11:34:03;2.30;;;2.20;;
50012;SDS011;35901;48.694;9.476;2023-04-10T11:36:33;2.10;;;2.00;;
50012;SDS011;35901;48.694;9.476;2023-04-10T11:39:03;1.87;;;1.77;;
50012;SDS011;35901;48.694;9.476;2023-04-10T11:41:34;2.00;;;1.90;;
50012;SDS011;35901;48.694;9.476;2023-04-10T11:44:08;1.43;;;1.37;;
50012;SDS011;35901;48.694;9.476;2023-04-10T11:46:35;2.57;;;1.93;;
50012;SDS011;35901;48.694;9.476;2023-04-10T11:49:03;2.00;;;1.90;;
50012;SDS011;35901;48.694;9.476;2023-04-10T11:51:30;2.00;;;1.90;;
50012;SDS011;35901;48.694;9.476;2023-04-10T11:54:08;1.93;;;1.83;;
50012;SDS011;35901;48.694;9.476;2023-04-10T11:56:36;1.90;;;1.80;;
50012;SDS011;35901;48.694;9.476;2023-04-10T11:59:03;1.77;;;1.67;;
50012;SDS011;35901;48.694;9.476;2023-04-10T12:01:35;1.90;;;1.80;;
50012;SDS011;35901;48.694;9.476;2023-04-10T12:04:01;2.00;;;1.90;;
50012;SDS011;35901;48.694;9.476;2023-04-10T12:06:28;2.10;;;2.00;;
50012;SDS011;35901;48.694;9.476;2023-04-10T12:08:53;2.03;;;1.93;;
50012;SDS011;35901;48.694;9.476;2023-04-10T12:11:20;2.10;;;2.00;;
50012;SDS011;35901;48.694;9.476;2023-04-10T12:13:52;2.10;;;2.00;;
50012;SDS011;35901;48.694;9.476;2023-04-10T12:16:19;2.27;;;2.13;;
50012;SDS011;35901;48.694;9.476;2023-04-10T12:18:45;2.20;;;2.10;;
50012;SDS011;35901;48.694;9.476;2023-04-10T12:21:12;2.47;;;2.20;;
50012;SDS011;35901;48.694;9.476;2023-04-10T12:23:38;2.47;;;2.30;;
50012;SDS011;35901;48.694;9.476;2023-04-10T12:26:14;2.60;;;2.40;;
50012;SDS011;35901;48.694;9.476;2023-04-10T12:28:52;2.40;;;2.30;;
50012;SDS011;35901;48.694;9.476;2023-04-10T12:31:25;2.20;;;2.00;;
50012;SDS011;35901;48.694;9.476;2023-04-10T12:33:55;2.40;;;2.00;;
50012;SDS011;35901;48.694;9.476;2023-04-10T12:36:25;2.10;;;2.00;;
50012;SDS011;35901;48.694;9.476;2023-04-10T12:39:00;1.80;;;1.70;;
50012;SDS011;35901;48.694;9.476;2023-04-10T12:41:30;1.80;;;1.70;;
50012;SDS011;35901;48.694;9.476;2023-04-10T12:44:07;1.70;;;1.60;;
50012;SDS011;35901;48.694;9.476;2023-04-10T12:46:35;1.90;;;1.80;;
50012;SDS011;35901;48.694;9.476;2023-04-10T12:49:08;1.97;;;1.87;;
50012;SDS011;35901;48.694;9.476;2023-04-10T12:51:50;2.10;;;2.00;;
50012;SDS011;35901;48.694;9.476;2023-04-10T12:54:32;2.10;;;2.00;;
50012;SDS011;35901;48.694;9.476;2023-04-10T12:57:02;1.90;;;1.80;;
50012;SDS011;35901;48.694;9.476;2023-04-10T12:59:28;1.90;;;1.80;;
50012;SDS011;35901;48.694;9.476;2023-04-10T13:01:54;4.20;;;1.67;;
50012;SDS011;35901;48.694;9.476;2023-04-10T13:04:20;1.77;;;1.67;;
50012;SDS011;35901;48.694;9.476;2023-04-10T13:06:47;1.97;;;1.87;;
50012;SDS011;35901;48.694;9.476;2023-04-10T13:09:16;1.77;;;1.67;;
50012;SDS011;35901;48.694;9.476;2023-04-10T13:11:42;1.70;;;1.60;;
50012;SDS011;35901;48.694;9.476;2023-04-10T13:14:08;1.63;;;1.53;;
50012;SDS011;35901;48.694;9.476;2023-04-10T13:16:34;1.70;;;1.60;;
50012;SDS011;35901;48.694;9.476;2023-04-10T13:18:59;1.63;;;1.53;;
50012;SDS011;35901;48.694;9.476;2023-04-10T13:21:25;1.80;;;1.70;;
50012;SDS011;35901;48.694;9.476;2023-04-10T13:23:53;1.67;;;1.60;;
50012;SDS011;35901;48.694;9.476;2023-04-10T13:26:20;1.83;;;1.73;;
50012;SDS011;35901;48.694;9.476;2023-04-10T13:28:46;1.80;;;1.70;;
50012;SDS011;35901;48.694;9.476;2023-04-10T13:31:11;1.80;;;1.70;;
50012;SDS011;35901;48.694;9.476;2023-04-10T13:33:40;1.80;;;1.70;;
50012;SDS011;35901;48.694;9.476;2023-04-10T13:36:14;2.07;;;1.70;;
50012;SDS011;35901;48.694;9.476;2023-04-10T13:38:40;2.20;;;1.90;;
50012;SDS011;35901;48.694;9.476;2023-04-10T13:41:06;1.97;;;1.87;;
50012;SDS011;35901;48.694;9.476;2023-04-10T13:43:32;1.60;;;1.50;;
50012;SDS011;35901;48.694;9.476;2023-04-10T13:45:58;2.20;;;1.83;;
50012;SDS011;35901;48.694;9.476;2023-04-10T13:48:24;1.70;;;1.60;;
50012;SDS011;35901;48.694;9.476;2023-04-10T13:50:50;1.80;;;1.70;;
50012;SDS011;35901;48.694;9.476;2023-04-10T13:53:15;1.50;;;1.40;;
50012;SDS011;35901;48.694;9.476;2023-04-10T13:55:41;1.60;;;1.50;;
50012;SDS011;35901;48.694;9.476;2023-04-10T13:58:08;1.60;;;1.50;;
50012;SDS011;35901;48.694;9.476;2023-04-10T14:00:37;1.80;;;1.50;;
50012;SDS011;35901;48.694;9.476;2023-04-10T14:03:03;1.40;;;1.40;;
50012;SDS011;35901;48.694;9.476;2023-04-10T14:05:29;1.70;;;1.60;;
50012;SDS011;35901;48.694;9.476;2023-04-10T14:07:54;1.73;;;1.63;;
50012;SDS011;35901;48.694;9.476;2023-04-10T14:10:24;1.60;;;1.50;;
50012;SDS011;35901;48.694;9.476;2023-04-10T14:12:50;1.70;;;1.60;;
50012;SDS011;35901;48.694;9.476;2023-04-10T14:15:15;1.80;;;1.70;;
50012;SDS011;35901;48.694;9.476;2023-04-10T14:17:41;1.50;;;1.50;;
50012;SDS011;35901;48.694;9.476;2023-04-10T14:20:07;1.60;;;1.50;;
50012;SDS011;35901;48.694;9.476;2023-04-10T14:22:35;1.40;;;1.40;;
50012;SDS011;35901;48.694;9.476;2023-04-10T14:25:01;1.63;;;1.53;;
50012;SDS011;35901;48.694;9.476;2023-04-10T14:27:29;1.53;;;1.43;;
50012;SDS011;35901;48.694;9.476;2023-04-10T14:29:55;1.57;;;1.47;;
50012;SDS011;35901;48.694;9.476;2023-04-10T14:32:22;1.70;;;1.60;;
50012;SDS011;35901;48.694;9.476;2023-04-10T14:34:47;1.70;;;1.60;;
50012;SDS011;35901;48.694;9.476;2023-04-10T14:37:13;3.10;;;1.67;;
50012;SDS011;35901;48.694;9.476;2023-04-10T14:39:39;1.50;;;1.47;;
50012;SDS011;35901;48.694;9.476;2023-04-10T14:42:05;1.60;;;1.30;;
50012;SDS011;35901;48.694;9.476;2023-04-10T14:44:31;1.60;;;1.50;;
50012;SDS011;35901;48.694;9.476;2023-04-10T14:46:57;1.70;;;1.60;;
50012;SDS011;35901;48.694;9.476;2023-04-10T14:49:22;1.70;;;1.60;;
50012;SDS011;35901;48.694;9.476;2023-04-10T14:51:48;1.60;;;1.50;;
50012;SDS011;35901;48.694;9.476;2023-04-10T14:54:14;1.40;;;1.40;;
50012;SDS011;35901;48.694;9.476;2023-04-10T14:56:46;1.53;;;1.43;;
50012;SDS011;35901;48.694;9.476;2023-04-10T14:59:14;1.70;;;1.60;;
50012;SDS011;35901;48.694;9.476;2023-04-10T15:01:40;1.63;;;1.53;;
50012;SDS011;35901;48.694;9.476;2023-04-10T15:04:06;1.70;;;1.60;;
50012;SDS011;35901;48.694;9.476;2023-04-10T15:06:32;1.70;;;1.60;;
50012;SDS011;35901;48.694;9.476;2023-04-10T15:08:58;1.63;;;1.53;;
50012;SDS011;35901;48.694;9.476;2023-04-10T15:11:24;1.80;;;1.70;;
50012;SDS011;35901;48.694;9.476;2023-04-10T15:13:50;1.70;;;1.50;;
50012;SDS011;35901;48.694;9.476;2023-04-10T15:16:15;1.67;;;1.57;;
50012;SDS011;35901;48.694;9.476;2023-04-10T15:18:41;1.80;;;1.70;;
50012;SDS011;35901;48.694;9.476;2023-04-10T15:21:07;1.90;;;1.80;;
50012;SDS011;35901;48.694;9.476;2023-04-10T15:23:32;1.80;;;1.70;;
50012;SDS011;35901;48.694;9.476;2023-04-10T15:25:59;1.53;;;1.43;;
50012;SDS011;35901;48.694;9.476;2023-04-10T15:28:25;1.83;;;1.73;;
50012;SDS011;35901;48.694;9.476;2023-04-10T15:30:52;1.80;;;1.70;;
50012;SDS011;35901;48.694;9.476;2023-04-10T15:33:17;1.80;;;1.70;;